createdAt,value
2019-02-27T00:00:44.936Z,5.70
2019-02-27T00:03:12.136Z,5.70
2019-02-27T00:05:41.823Z,5.70
2019-02-27T00:08:08.475Z,5.70
2019-02-27T00:10:36.911Z,5.70
2019-02-27T00:13:04.616Z,5.60
2019-02-27T00:15:31.716Z,5.60
2019-02-27T00:17:58.895Z,5.50
2019-02-27T00:20:26.075Z,5.50
2019-02-27T00:22:53.196Z,5.50
2019-02-27T00:25:20.502Z,5.50
2019-02-27T00:27:49.265Z,5.50
2019-02-27T00:30:16.735Z,5.60
2019-02-27T00:32:43.876Z,5.60
2019-02-27T00:35:10.997Z,5.50
2019-02-27T00:37:38.196Z,5.60
2019-02-27T00:40:06.289Z,5.50
2019-02-27T00:42:33.975Z,5.60
2019-02-27T00:45:01.125Z,5.60
2019-02-27T00:47:28.355Z,5.60
2019-02-27T00:49:55.435Z,5.60
2019-02-27T00:52:22.544Z,5.60
2019-02-27T00:54:49.696Z,5.40
2019-02-27T00:57:20.498Z,5.20
2019-02-27T00:59:46.155Z,5.20
2019-02-27T01:02:13.276Z,5.20
2019-02-27T01:04:40.298Z,5.10
2019-02-27T01:07:07.497Z,5.00
2019-02-27T01:09:34.621Z,5.10
2019-02-27T01:12:01.777Z,5.00
2019-02-27T01:14:28.896Z,5.00
2019-02-27T01:16:55.971Z,5.00
2019-02-27T01:19:23.055Z,5.00
2019-02-27T01:21:50.217Z,5.10
2019-02-27T01:24:18.045Z,5.10
2019-02-27T01:26:45.278Z,5.10
2019-02-27T01:29:12.396Z,5.10
2019-02-27T01:31:39.515Z,5.20
2019-02-27T01:34:11.183Z,5.20
2019-02-27T01:36:35.855Z,5.10
2019-02-27T01:39:08.989Z,5.10
2019-02-27T01:41:35.556Z,5.00
2019-02-27T01:44:02.619Z,4.90
2019-02-27T01:46:29.777Z,4.80
2019-02-27T01:48:56.936Z,4.70
2019-02-27T01:51:25.728Z,4.70
2019-02-27T01:53:53.016Z,4.70
2019-02-27T01:56:20.136Z,4.70
2019-02-27T01:58:47.236Z,4.70
2019-02-27T02:01:14.417Z,4.70
2019-02-27T02:03:41.699Z,4.70
2019-02-27T02:06:08.977Z,4.70
2019-02-27T02:08:36.096Z,4.70
2019-02-27T02:11:03.295Z,4.80
2019-02-27T02:13:48.063Z,4.80
2019-02-27T02:16:40.117Z,4.80
2019-02-27T02:19:40.156Z,4.80
2019-02-27T02:22:15.596Z,4.80
2019-02-27T02:25:40.617Z,4.60
2019-02-27T02:28:27.881Z,4.50
2019-02-27T02:31:18.060Z,4.50
2019-02-27T02:33:53.635Z,4.40
2019-02-27T02:36:47.070Z,4.30
2019-02-27T02:39:54.223Z,4.30
2019-02-27T02:42:41.089Z,4.20
2019-02-27T02:45:32.749Z,4.20
2019-02-27T02:48:35.809Z,4.20
2019-02-27T02:51:40.330Z,4.20
2019-02-27T02:54:48.918Z,4.20
2019-02-27T02:57:38.165Z,4.30
2019-02-27T03:00:37.846Z,4.20
2019-02-27T03:03:35.971Z,4.20
2019-02-27T03:06:34.573Z,4.20
2019-02-27T03:09:10.269Z,4.20
2019-02-27T03:11:54.746Z,4.20
2019-02-27T03:14:31.069Z,4.20
2019-02-27T03:17:24.709Z,4.00
2019-02-27T03:20:00.009Z,3.90
2019-02-27T03:23:16.320Z,3.90
2019-02-27T03:26:31.531Z,3.90
2019-02-27T03:29:16.925Z,3.80
2019-02-27T03:32:14.574Z,3.90
2019-02-27T03:35:02.159Z,3.80
2019-02-27T03:37:49.549Z,3.80
2019-02-27T03:40:28.170Z,3.80
2019-02-27T03:43:26.142Z,3.80
2019-02-27T03:46:24.732Z,3.70
2019-02-27T03:49:03.742Z,3.60
2019-02-27T03:51:46.069Z,3.60
2019-02-27T03:54:43.071Z,3.50
2019-02-27T03:57:46.189Z,3.50
2019-02-27T04:00:42.022Z,3.40
2019-02-27T04:03:46.231Z,3.30
2019-02-27T04:06:34.112Z,3.30
2019-02-27T04:09:01.246Z,3.20
2019-02-27T04:11:28.672Z,3.20
2019-02-27T04:14:03.235Z,3.20
2019-02-27T04:16:28.881Z,3.20
2019-02-27T04:18:54.109Z,3.20
2019-02-27T04:21:24.949Z,3.30
2019-02-27T04:23:51.689Z,3.30
2019-02-27T04:26:19.492Z,3.30
2019-02-27T04:28:46.772Z,3.20
2019-02-27T04:31:13.872Z,3.30
2019-02-27T04:33:40.951Z,3.10
2019-02-27T04:36:12.329Z,3.10
2019-02-27T04:38:37.109Z,3.00
2019-02-27T04:41:04.250Z,3.00
2019-02-27T04:43:32.210Z,3.10
2019-02-27T04:45:59.911Z,2.90
2019-02-27T04:48:29.921Z,2.80
2019-02-27T04:50:56.130Z,2.80
2019-02-27T04:53:23.209Z,2.80
2019-02-27T04:55:50.635Z,2.80
2019-02-27T04:58:18.453Z,2.70
2019-02-27T05:00:45.630Z,2.70
2019-02-27T05:03:12.758Z,2.70
2019-02-27T05:05:41.396Z,2.80
2019-02-27T05:08:09.147Z,2.70
2019-02-27T05:10:38.179Z,2.80
2019-02-27T05:13:05.282Z,2.70
2019-02-27T05:15:32.369Z,2.60
2019-02-27T05:17:59.529Z,2.60
2019-02-27T05:20:27.109Z,2.50
2019-02-27T05:22:54.273Z,2.50
2019-02-27T05:25:21.372Z,2.50
2019-02-27T05:27:48.531Z,2.50
2019-02-27T05:30:15.650Z,2.50
2019-02-27T05:32:42.770Z,2.40
2019-02-27T05:35:09.830Z,2.40
2019-02-27T05:37:39.271Z,2.40
2019-02-27T05:40:09.270Z,2.40
2019-02-27T05:42:38.813Z,2.30
2019-02-27T05:45:09.929Z,2.30
2019-02-27T05:47:36.990Z,2.30
2019-02-27T05:50:08.869Z,2.30
2019-02-27T05:52:35.989Z,2.30
2019-02-27T05:55:06.448Z,2.40
2019-02-27T05:57:33.428Z,2.40
2019-02-27T06:00:02.553Z,2.40
2019-02-27T06:02:29.791Z,2.40
2019-02-27T06:04:59.144Z,2.50
2019-02-27T06:07:26.331Z,2.50
2019-02-27T06:09:53.515Z,2.60
2019-02-27T06:12:20.649Z,2.60
2019-02-27T06:14:47.910Z,2.70
2019-02-27T06:17:15.089Z,2.80
2019-02-27T06:19:42.391Z,2.80
2019-02-27T06:22:09.433Z,2.90
2019-02-27T06:24:36.630Z,3.00
2019-02-27T06:27:06.085Z,3.10
2019-02-27T06:29:32.769Z,3.20
2019-02-27T06:31:59.871Z,3.30
2019-02-27T06:34:26.989Z,3.40
2019-02-27T06:36:54.069Z,3.70
2019-02-27T06:39:21.152Z,3.90
2019-02-27T06:41:49.780Z,3.90
2019-02-27T06:44:19.022Z,4.00
2019-02-27T06:46:46.510Z,4.10
2019-02-27T06:49:17.298Z,4.20
2019-02-27T06:51:42.621Z,4.30
2019-02-27T06:54:09.747Z,4.40
2019-02-27T06:56:36.866Z,4.60
2019-02-27T06:59:04.045Z,4.80
2019-02-27T07:01:31.187Z,4.90
2019-02-27T07:03:58.346Z,5.00
2019-02-27T07:06:25.488Z,4.90
2019-02-27T07:08:52.606Z,4.90
2019-02-27T07:11:19.769Z,5.10
2019-02-27T07:13:46.928Z,5.20
2019-02-27T07:16:14.068Z,5.30
2019-02-27T07:18:41.790Z,5.40
2019-02-27T07:21:09.649Z,5.60
2019-02-27T07:23:36.849Z,5.80
2019-02-27T07:26:04.175Z,5.80
2019-02-27T07:28:31.270Z,6.00
2019-02-27T07:30:58.469Z,6.10
2019-02-27T07:33:25.588Z,6.30
2019-02-27T07:35:52.648Z,6.50
2019-02-27T07:38:21.649Z,6.70
2019-02-27T07:40:48.808Z,6.70
2019-02-27T07:43:15.988Z,6.80
2019-02-27T07:45:45.443Z,6.80
2019-02-27T07:48:12.168Z,7.10
2019-02-27T07:50:39.249Z,7.10
2019-02-27T07:53:06.508Z,7.30
2019-02-27T07:55:33.613Z,7.60
2019-02-27T07:58:00.710Z,7.80
2019-02-27T08:00:27.886Z,8.10
2019-02-27T08:02:54.989Z,8.30
2019-02-27T08:05:22.128Z,8.40
2019-02-27T08:07:49.958Z,8.60
2019-02-27T08:10:23.308Z,8.60
2019-02-27T08:12:50.349Z,8.70
2019-02-27T08:15:19.042Z,8.90
2019-02-27T08:17:46.357Z,9.10
2019-02-27T08:20:20.248Z,9.00
2019-02-27T08:22:44.808Z,9.20
2019-02-27T08:25:15.229Z,9.30
2019-02-27T08:27:43.739Z,9.30
2019-02-27T08:30:23.868Z,9.40
2019-02-27T08:32:51.089Z,9.70
2019-02-27T08:35:18.283Z,9.80
2019-02-27T08:37:45.769Z,9.80
2019-02-27T08:40:13.890Z,10.00
2019-02-27T08:42:41.129Z,10.20
2019-02-27T08:45:20.198Z,10.50
2019-02-27T08:47:45.968Z,10.70
2019-02-27T08:50:20.989Z,10.90
2019-02-27T08:52:51.411Z,11.10
2019-02-27T08:55:22.084Z,11.20
2019-02-27T08:57:49.739Z,11.10
2019-02-27T09:00:28.068Z,11.10
2019-02-27T09:02:55.808Z,11.20
2019-02-27T09:05:23.803Z,11.40
2019-02-27T09:07:50.850Z,11.40
2019-02-27T09:10:23.229Z,11.60
2019-02-27T09:12:51.812Z,11.70
2019-02-27T09:15:19.129Z,11.80
2019-02-27T09:17:46.710Z,11.80
2019-02-27T09:20:19.665Z,12.10
2019-02-27T09:22:46.511Z,12.40
2019-02-27T09:25:13.969Z,12.60
2019-02-27T09:27:41.270Z,12.60
2019-02-27T09:30:13.388Z,12.70
2019-02-27T09:32:40.472Z,12.60
2019-02-27T09:35:09.930Z,12.60
2019-02-27T09:37:37.048Z,12.90
2019-02-27T09:40:30.269Z,13.10
2019-02-27T09:42:57.708Z,13.20
2019-02-27T09:45:28.389Z,13.20
2019-02-27T09:47:59.528Z,13.50
2019-02-27T09:50:47.575Z,13.50
2019-02-27T09:53:12.568Z,13.50
2019-02-27T09:55:39.669Z,13.70
2019-02-27T09:58:11.217Z,13.90
2019-02-27T10:01:03.135Z,14.10
2019-02-27T10:03:30.409Z,14.30
2019-02-27T10:05:57.508Z,14.40
2019-02-27T10:08:25.540Z,14.40
2019-02-27T10:10:53.230Z,14.50
2019-02-27T10:13:20.368Z,14.30
2019-02-27T10:15:47.509Z,14.40
2019-02-27T10:18:18.039Z,14.60
2019-02-27T10:20:44.428Z,14.90
2019-02-27T10:23:11.488Z,15.00
2019-02-27T10:25:43.201Z,14.90
2019-02-27T10:28:07.708Z,14.90
2019-02-27T10:30:34.790Z,15.00
2019-02-27T10:33:03.452Z,15.20
2019-02-27T10:35:31.068Z,15.20
2019-02-27T10:37:58.221Z,15.40
2019-02-27T10:40:26.548Z,15.50
2019-02-27T10:42:53.691Z,15.30
2019-02-27T10:45:20.769Z,15.40
2019-02-27T10:47:47.828Z,15.60
2019-02-27T10:50:15.348Z,15.60
2019-02-27T10:52:42.453Z,15.70
2019-02-27T10:55:31.150Z,15.80
2019-02-27T10:57:58.329Z,15.90
2019-02-27T11:00:32.529Z,16.20
2019-02-27T11:03:00.751Z,16.10
2019-02-27T11:05:39.370Z,16.20
2019-02-27T11:08:06.870Z,16.40
2019-02-27T11:10:35.291Z,16.50
2019-02-27T11:13:05.702Z,16.40
2019-02-27T11:15:31.489Z,16.50
2019-02-27T11:18:04.455Z,16.30
2019-02-27T11:20:27.630Z,16.30
2019-02-27T11:22:54.769Z,16.30
2019-02-27T11:25:29.389Z,16.40
2019-02-27T11:27:56.689Z,16.40
2019-02-27T11:30:52.929Z,16.50
2019-02-27T11:33:25.743Z,16.70
2019-02-27T11:35:49.018Z,16.60
2019-02-27T11:38:16.455Z,16.60
2019-02-27T11:40:43.590Z,16.60
2019-02-27T11:43:10.809Z,16.50
2019-02-27T11:45:38.011Z,16.50
2019-02-27T11:48:05.110Z,16.90
2019-02-27T11:50:32.290Z,16.90
2019-02-27T11:53:02.849Z,17.10
2019-02-27T11:55:28.809Z,17.20
2019-02-27T11:57:55.910Z,17.20
2019-02-27T12:00:26.771Z,17.40
2019-02-27T12:02:54.791Z,17.30
2019-02-27T12:05:21.868Z,17.40
2019-02-27T12:07:51.190Z,17.40
2019-02-27T12:10:24.994Z,17.50
2019-02-27T12:12:52.246Z,17.40
2019-02-27T12:15:20.666Z,17.20
2019-02-27T12:17:48.146Z,17.40
2019-02-27T12:20:18.953Z,17.50
2019-02-27T12:22:46.047Z,17.50
2019-02-27T12:25:15.567Z,17.60
2019-02-27T12:27:49.208Z,17.50
2019-02-27T12:30:20.706Z,17.20
2019-02-27T12:32:48.189Z,17.50
2019-02-27T12:35:26.029Z,17.40
2019-02-27T12:37:53.386Z,17.50
2019-02-27T12:40:25.006Z,17.70
2019-02-27T12:42:51.253Z,17.60
2019-02-27T12:45:25.747Z,17.60
2019-02-27T12:47:54.066Z,17.60
2019-02-27T12:50:26.877Z,17.70
2019-02-27T12:52:52.691Z,17.80
2019-02-27T12:55:20.787Z,17.80
2019-02-27T12:57:52.454Z,18.10
2019-02-27T13:00:31.888Z,17.80
2019-02-27T13:02:59.358Z,18.10
2019-02-27T13:05:27.634Z,18.20
2019-02-27T13:07:54.756Z,18.10
2019-02-27T13:10:24.807Z,18.30
2019-02-27T13:12:52.585Z,18.40
2019-02-27T13:15:41.003Z,18.40
2019-02-27T13:18:08.707Z,18.40
2019-02-27T13:20:35.829Z,18.40
2019-02-27T13:23:05.144Z,18.40
2019-02-27T13:25:32.027Z,18.40
2019-02-27T13:27:59.287Z,18.40
2019-02-27T13:30:27.506Z,18.40
2019-02-27T13:32:54.690Z,18.50
2019-02-27T13:35:23.131Z,18.40
2019-02-27T13:37:51.166Z,18.80
2019-02-27T13:40:23.986Z,18.30
2019-02-27T13:42:53.393Z,18.40
2019-02-27T13:45:30.027Z,18.60
2019-02-27T13:47:58.996Z,18.70
2019-02-27T13:50:27.066Z,18.70
2019-02-27T13:52:54.270Z,18.70
2019-02-27T13:55:22.947Z,18.60
2019-02-27T13:57:50.286Z,18.70
2019-02-27T14:00:27.708Z,18.70
2019-02-27T14:02:54.886Z,18.80
2019-02-27T14:05:22.006Z,18.60
2019-02-27T14:07:49.128Z,18.70
2019-02-27T14:10:36.106Z,18.60
2019-02-27T14:13:03.329Z,18.60
2019-02-27T14:15:31.766Z,18.80
2019-02-27T14:17:59.066Z,18.80
2019-02-27T14:20:27.284Z,18.90
2019-02-27T14:22:55.313Z,18.80
2019-02-27T14:25:32.353Z,18.70
2019-02-27T14:27:56.993Z,18.50
2019-02-27T14:30:38.231Z,18.70
2019-02-27T14:33:05.299Z,18.80
2019-02-27T14:35:36.379Z,18.70
2019-02-27T14:38:02.038Z,18.80
2019-02-27T14:40:29.155Z,18.80
2019-02-27T14:42:56.240Z,18.70
2019-02-27T14:45:24.670Z,18.60
2019-02-27T14:47:52.181Z,18.80
2019-02-27T14:50:22.949Z,18.80
2019-02-27T14:52:50.181Z,18.80
2019-02-27T14:55:18.467Z,18.80
2019-02-27T14:57:50.090Z,18.60
2019-02-27T15:00:30.002Z,18.80
2019-02-27T15:02:57.100Z,18.70
2019-02-27T15:05:24.240Z,18.60
2019-02-27T15:07:53.675Z,18.60
2019-02-27T15:10:23.182Z,18.50
2019-02-27T15:12:53.869Z,18.60
2019-02-27T15:15:28.020Z,18.60
2019-02-27T15:17:55.488Z,18.70
2019-02-27T15:20:25.186Z,18.50
2019-02-27T15:22:52.805Z,18.60
2019-02-27T15:25:20.835Z,18.60
2019-02-27T15:27:47.872Z,18.60
2019-02-27T15:30:32.312Z,18.60
2019-02-27T15:33:03.837Z,18.40
2019-02-27T15:35:28.569Z,18.40
2019-02-27T15:37:55.831Z,18.30
2019-02-27T15:40:30.542Z,18.30
2019-02-27T15:42:58.161Z,18.30
2019-02-27T15:45:27.300Z,18.30
2019-02-27T15:47:54.337Z,18.00
2019-02-27T15:50:31.304Z,17.90
2019-02-27T15:52:58.395Z,17.80
2019-02-27T15:55:25.396Z,17.80
2019-02-27T15:57:53.999Z,17.70
2019-02-27T16:00:24.680Z,17.60
2019-02-27T16:02:51.910Z,17.50
2019-02-27T16:05:19.131Z,17.50
2019-02-27T16:07:49.395Z,17.40
2019-02-27T16:10:20.731Z,17.20
2019-02-27T16:12:48.030Z,17.10
2019-02-27T16:15:18.671Z,17.00
2019-02-27T16:17:45.923Z,16.90
2019-02-27T16:20:16.742Z,16.80
2019-02-27T16:22:44.139Z,16.70
2019-02-27T16:25:19.890Z,16.60
2019-02-27T16:27:46.919Z,16.40
2019-02-27T16:30:33.118Z,16.20
2019-02-27T16:33:00.451Z,16.10
2019-02-27T16:35:27.600Z,15.90
2019-02-27T16:37:57.676Z,15.60
2019-02-27T16:40:28.704Z,15.30
2019-02-27T16:42:55.789Z,15.10
2019-02-27T16:45:36.993Z,14.80
2019-02-27T16:48:05.637Z,14.40
2019-02-27T16:50:32.930Z,14.10
2019-02-27T16:53:00.057Z,13.80
2019-02-27T16:55:28.110Z,13.50
2019-02-27T16:57:57.431Z,13.30
2019-02-27T17:00:29.990Z,13.00
2019-02-27T17:02:57.240Z,12.70
2019-02-27T17:05:24.528Z,12.50
2019-02-27T17:07:51.804Z,12.20
2019-02-27T17:10:33.930Z,12.00
2019-02-27T17:13:01.255Z,11.90
2019-02-27T17:15:28.571Z,11.70
2019-02-27T17:17:55.673Z,11.60
2019-02-27T17:20:25.324Z,11.50
2019-02-27T17:22:52.512Z,11.30
2019-02-27T17:25:19.591Z,11.10
2019-02-27T17:27:49.891Z,10.90
2019-02-27T17:30:37.736Z,10.80
2019-02-27T17:33:05.305Z,10.60
2019-02-27T17:35:32.699Z,10.50
2019-02-27T17:37:59.795Z,10.30
2019-02-27T17:40:29.045Z,10.20
2019-02-27T17:42:56.028Z,10.10
2019-02-27T17:45:47.751Z,10.00
2019-02-27T17:48:14.892Z,9.80
2019-02-27T17:50:42.033Z,9.70
2019-02-27T17:53:09.192Z,9.70
2019-02-27T17:55:38.156Z,9.50
2019-02-27T17:58:05.396Z,9.40
2019-02-27T18:00:37.412Z,9.30
2019-02-27T18:03:05.817Z,9.20
2019-02-27T18:05:33.405Z,9.20
2019-02-27T18:08:00.574Z,9.10
2019-02-27T18:10:27.691Z,9.00
2019-02-27T18:12:54.813Z,9.10
2019-02-27T18:15:24.205Z,9.10
2019-02-27T18:17:51.463Z,9.10
2019-02-27T18:20:24.173Z,9.00
2019-02-27T18:22:49.573Z,8.90
2019-02-27T18:25:18.131Z,8.80
2019-02-27T18:27:47.718Z,8.80
2019-02-27T18:30:18.778Z,8.70
2019-02-27T18:32:47.732Z,8.60
2019-02-27T18:35:15.873Z,8.60
2019-02-27T18:37:43.153Z,8.50
2019-02-27T18:40:14.913Z,8.40
2019-02-27T18:42:42.092Z,8.30
2019-02-27T18:45:19.051Z,8.40
2019-02-27T18:47:46.188Z,8.40
2019-02-27T18:50:14.846Z,8.40
2019-02-27T18:52:42.019Z,8.30
2019-02-27T18:55:14.339Z,8.30
2019-02-27T18:57:45.822Z,8.30
2019-02-27T19:00:20.221Z,8.30
2019-02-27T19:02:47.791Z,8.30
2019-02-27T19:05:14.944Z,8.20
2019-02-27T19:07:42.206Z,8.10
2019-02-27T19:10:14.882Z,8.00
2019-02-27T19:12:42.524Z,7.90
2019-02-27T19:15:22.058Z,7.80
2019-02-27T19:17:49.881Z,7.80
2019-02-27T19:20:24.717Z,7.70
2019-02-27T19:22:50.640Z,7.60
2019-02-27T19:25:17.821Z,7.60
2019-02-27T19:27:44.956Z,7.50
2019-02-27T19:30:16.042Z,7.40
2019-02-27T19:32:43.456Z,7.40
2019-02-27T19:35:11.474Z,7.30
2019-02-27T19:37:39.144Z,7.20
2019-02-27T19:40:11.954Z,7.20
2019-02-27T19:43:01.009Z,7.10
2019-02-27T19:45:28.605Z,7.10
2019-02-27T19:47:55.976Z,7.00
2019-02-27T19:50:24.323Z,6.90
2019-02-27T19:52:51.403Z,6.90
2019-02-27T19:55:19.078Z,6.90
2019-02-27T19:57:46.397Z,6.80
2019-02-27T20:00:33.880Z,6.70
2019-02-27T20:03:01.103Z,6.70
2019-02-27T20:05:27.339Z,6.60
2019-02-27T20:07:54.891Z,6.60
2019-02-27T20:10:22.037Z,6.50
2019-02-27T20:12:52.973Z,6.50
2019-02-27T20:15:20.121Z,6.50
2019-02-27T20:17:47.641Z,6.40
2019-02-27T20:20:18.381Z,6.40
2019-02-27T20:22:45.900Z,6.30
2019-02-27T20:25:18.269Z,6.30
2019-02-27T20:27:45.465Z,6.30
2019-02-27T20:30:22.563Z,6.30
2019-02-27T20:32:49.821Z,6.30
2019-02-27T20:35:17.213Z,6.30
2019-02-27T20:37:46.005Z,6.30
2019-02-27T20:40:17.501Z,6.30
2019-02-27T20:42:50.022Z,6.20
2019-02-27T20:45:23.001Z,6.20
2019-02-27T20:47:57.626Z,6.20
2019-02-27T20:50:44.501Z,6.20
2019-02-27T20:53:13.603Z,6.20
2019-02-27T20:55:40.781Z,6.20
2019-02-27T20:58:07.821Z,6.10
2019-02-27T21:00:36.612Z,6.10
2019-02-27T21:03:04.341Z,6.10
2019-02-27T21:05:32.381Z,6.10
2019-02-27T21:08:01.975Z,6.00
2019-02-27T21:10:31.181Z,6.00
2019-02-27T21:12:58.361Z,6.00
2019-02-27T21:15:26.300Z,6.00
2019-02-27T21:17:57.554Z,6.00
2019-02-27T21:20:22.516Z,6.00
2019-02-27T21:22:49.781Z,6.00
2019-02-27T21:25:17.000Z,6.00
2019-02-27T21:27:44.087Z,5.90
2019-02-27T21:30:19.096Z,5.90
2019-02-27T21:32:46.328Z,5.90
2019-02-27T21:35:13.462Z,5.90
2019-02-27T21:37:44.563Z,5.90
2019-02-27T21:40:14.360Z,5.90
2019-02-27T21:42:41.501Z,5.90
2019-02-27T21:45:20.021Z,5.90
2019-02-27T21:47:51.418Z,5.90
2019-02-27T21:50:25.080Z,5.90
2019-02-27T21:52:54.265Z,5.80
2019-02-27T21:55:21.400Z,5.80
2019-02-27T21:57:48.564Z,5.80
2019-02-27T22:00:23.516Z,5.80
2019-02-27T22:02:52.570Z,5.80
2019-02-27T22:05:19.842Z,5.80
2019-02-27T22:07:47.228Z,5.70
2019-02-27T22:10:19.372Z,5.70
2019-02-27T22:12:44.969Z,5.70
2019-02-27T22:15:27.948Z,5.70
2019-02-27T22:17:55.114Z,5.80
2019-02-27T22:20:22.269Z,5.80
2019-02-27T22:22:49.991Z,5.80
2019-02-27T22:25:17.130Z,5.80
2019-02-27T22:27:45.889Z,5.80
2019-02-27T22:30:18.631Z,5.70
2019-02-27T22:32:48.128Z,5.80
2019-02-27T22:35:14.768Z,5.80
2019-02-27T22:37:41.989Z,5.80
2019-02-27T22:40:15.888Z,5.80
2019-02-27T22:42:45.569Z,5.80
2019-02-27T22:45:15.891Z,5.80
2019-02-27T22:47:42.969Z,5.70
2019-02-27T22:50:16.073Z,5.70
2019-02-27T22:52:43.149Z,5.70
2019-02-27T22:55:10.917Z,5.60
2019-02-27T22:57:38.309Z,5.60
2019-02-27T23:00:21.769Z,5.60
2019-02-27T23:02:49.029Z,5.60
2019-02-27T23:05:16.289Z,5.50
2019-02-27T23:07:43.429Z,5.50
2019-02-27T23:10:10.829Z,5.40
2019-02-27T23:12:39.480Z,5.40
2019-02-27T23:15:06.949Z,5.40
2019-02-27T23:17:34.110Z,5.40
2019-02-27T23:20:01.288Z,5.40
2019-02-27T23:22:28.904Z,5.30
2019-02-27T23:24:56.950Z,5.30
2019-02-27T23:27:26.051Z,5.20
2019-02-27T23:29:53.130Z,5.10
2019-02-27T23:32:20.269Z,5.10
2019-02-27T23:34:47.491Z,5.10
2019-02-27T23:37:14.609Z,5.00
2019-02-27T23:39:42.932Z,4.90
2019-02-27T23:42:10.809Z,4.80
2019-02-27T23:44:38.789Z,4.80
2019-02-27T23:47:06.868Z,4.70
2019-02-27T23:49:34.049Z,4.70
2019-02-27T23:52:01.234Z,4.70
2019-02-27T23:54:28.349Z,4.60
2019-02-27T23:56:55.428Z,4.60
2019-02-27T23:59:22.608Z,4.60
